sensor_id;sensor_type;location;lat;lon;timestamp;P1;durP1;ratioP1;P2;durP2;ratioP2
7523;SDS011;3803;51.666;7.630;2022-11-02T00:00:05;6.40;;;2.80;;
7523;SDS011;3803;51.666;7.630;2022-11-02T00:00:32;5.57;;;2.50;;
7523;SDS011;3803;51.666;7.630;2022-11-02T00:00:54;8.80;;;2.80;;
7523;SDS011;3803;51.666;7.630;2022-11-02T00:01:20;9.20;;;2.67;;
7523;SDS011;3803;51.666;7.630;2022-11-02T00:01:45;6.95;;;2.65;;
7523;SDS011;3803;51.666;7.630;2022-11-02T00:02:06;9.95;;;3.35;;
7523;SDS011;3803;51.666;7.630;2022-11-02T00:02:26;9.00;;;3.50;;
7523;SDS011;3803;51.666;7.630;2022-11-02T00:02:47;9.03;;;3.43;;
7523;SDS011;3803;51.666;7.630;2022-11-02T00:03:07;7.22;;;2.72;;
7523;SDS011;3803;51.666;7.630;2022-11-02T00:03:28;8.57;;;2.53;;
7523;SDS011;3803;51.666;7.630;2022-11-02T00:03:48;10.07;;;2.70;;
7523;SDS011;3803;51.666;7.630;2022-11-02T00:04:09;10.17;;;2.80;;
7523;SDS011;3803;51.666;7.630;2022-11-02T00:04:30;10.13;;;2.80;;
7523;SDS011;3803;51.666;7.630;2022-11-02T00:04:50;9.55;;;2.70;;
7523;SDS011;3803;51.666;7.630;2022-11-02T00:05:11;9.43;;;2.65;;
7523;SDS011;3803;51.666;7.630;2022-11-02T00:05:33;9.68;;;3.30;;
7523;SDS011;3803;51.666;7.630;2022-11-02T00:05:54;14.05;;;3.78;;
7523;SDS011;3803;51.666;7.630;2022-11-02T00:06:14;15.27;;;3.60;;
7523;SDS011;3803;51.666;7.630;2022-11-02T00:06:35;13.40;;;3.13;;
7523;SDS011;3803;51.666;7.630;2022-11-02T00:06:56;9.18;;;2.70;;
7523;SDS011;3803;51.666;7.630;2022-11-02T00:07:16;9.07;;;2.97;;
7523;SDS011;3803;51.666;7.630;2022-11-02T00:07:37;10.80;;;3.00;;
7523;SDS011;3803;51.666;7.630;2022-11-02T00:07:57;11.13;;;2.90;;
7523;SDS011;3803;51.666;7.630;2022-11-02T00:08:18;13.25;;;2.85;;
7523;SDS011;3803;51.666;7.630;2022-11-02T00:08:39;12.25;;;3.10;;
7523;SDS011;3803;51.666;7.630;2022-11-02T00:08:59;11.23;;;3.30;;
7523;SDS011;3803;51.666;7.630;2022-11-02T00:09:20;7.83;;;3.20;;
7523;SDS011;3803;51.666;7.630;2022-11-02T00:09:41;9.63;;;3.10;;
7523;SDS011;3803;51.666;7.630;2022-11-02T00:10:01;9.90;;;2.90;;
7523;SDS011;3803;51.666;7.630;2022-11-02T00:10:23;9.27;;;2.70;;
7523;SDS011;3803;51.666;7.630;2022-11-02T00:10:44;8.60;;;2.60;;
7523;SDS011;3803;51.666;7.630;2022-11-02T00:11:04;7.90;;;2.60;;
7523;SDS011;3803;51.666;7.630;2022-11-02T00:11:25;7.33;;;2.63;;
7523;SDS011;3803;51.666;7.630;2022-11-02T00:11:46;7.60;;;2.80;;
7523;SDS011;3803;51.666;7.630;2022-11-02T00:12:06;8.27;;;2.83;;
7523;SDS011;3803;51.666;7.630;2022-11-02T00:12:27;9.38;;;2.80;;
7523;SDS011;3803;51.666;7.630;2022-11-02T00:12:48;8.47;;;2.47;;
7523;SDS011;3803;51.666;7.630;2022-11-02T00:13:10;8.27;;;2.50;;
7523;SDS011;3803;51.666;7.630;2022-11-02T00:13:30;8.60;;;2.50;;
7523;SDS011;3803;51.666;7.630;2022-11-02T00:13:51;8.13;;;2.70;;
7523;SDS011;3803;51.666;7.630;2022-11-02T00:14:11;7.75;;;2.80;;
7523;SDS011;3803;51.666;7.630;2022-11-02T00:14:32;8.27;;;2.80;;
7523;SDS011;3803;51.666;7.630;2022-11-02T00:14:52;8.20;;;2.77;;
7523;SDS011;3803;51.666;7.630;2022-11-02T00:15:13;8.38;;;2.65;;
7523;SDS011;3803;51.666;7.630;2022-11-02T00:15:34;7.93;;;2.70;;
7523;SDS011;3803;51.666;7.630;2022-11-02T00:15:56;9.35;;;2.92;;
7523;SDS011;3803;51.666;7.630;2022-11-02T00:16:20;8.93;;;2.85;;
7523;SDS011;3803;51.666;7.630;2022-11-02T00:16:42;8.60;;;2.70;;
7523;SDS011;3803;51.666;7.630;2022-11-02T00:17:02;8.53;;;2.80;;
7523;SDS011;3803;51.666;7.630;2022-11-02T00:17:23;7.25;;;2.80;;
7523;SDS011;3803;51.666;7.630;2022-11-02T00:17:44;6.43;;;2.60;;
7523;SDS011;3803;51.666;7.630;2022-11-02T00:18:08;5.72;;;2.30;;
7523;SDS011;3803;51.666;7.630;2022-11-02T00:18:31;6.25;;;2.33;;
7523;SDS011;3803;51.666;7.630;2022-11-02T00:18:54;7.68;;;2.63;;
7523;SDS011;3803;51.666;7.630;2022-11-02T00:19:18;7.50;;;2.90;;
7523;SDS011;3803;51.666;7.630;2022-11-02T00:19:38;6.73;;;2.97;;
7523;SDS011;3803;51.666;7.630;2022-11-02T00:19:59;6.70;;;2.90;;
7523;SDS011;3803;51.666;7.630;2022-11-02T00:20:19;6.82;;;2.80;;
7523;SDS011;3803;51.666;7.630;2022-11-02T00:20:40;6.57;;;2.60;;
7523;SDS011;3803;51.666;7.630;2022-11-02T00:21:02;6.97;;;2.60;;
7523;SDS011;3803;51.666;7.630;2022-11-02T00:21:24;8.32;;;2.70;;
7523;SDS011;3803;51.666;7.630;2022-11-02T00:21:46;8.80;;;3.08;;
7523;SDS011;3803;51.666;7.630;2022-11-02T00:22:06;10.40;;;3.15;;
7523;SDS011;3803;51.666;7.630;2022-11-02T00:22:27;9.70;;;2.97;;
7523;SDS011;3803;51.666;7.630;2022-11-02T00:22:49;10.40;;;2.75;;
7523;SDS011;3803;51.666;7.630;2022-11-02T00:23:14;8.82;;;2.80;;
7523;SDS011;3803;51.666;7.630;2022-11-02T00:23:35;8.35;;;3.20;;
7523;SDS011;3803;51.666;7.630;2022-11-02T00:23:56;7.47;;;3.50;;
7523;SDS011;3803;51.666;7.630;2022-11-02T00:24:18;7.97;;;3.58;;
7523;SDS011;3803;51.666;7.630;2022-11-02T00:24:38;7.32;;;3.15;;
7523;SDS011;3803;51.666;7.630;2022-11-02T00:24:59;12.18;;;2.95;;
7523;SDS011;3803;51.666;7.630;2022-11-02T00:25:23;11.52;;;2.88;;
7523;SDS011;3803;51.666;7.630;2022-11-02T00:25:46;12.82;;;2.92;;
7523;SDS011;3803;51.666;7.630;2022-11-02T00:26:09;7.47;;;2.75;;
7523;SDS011;3803;51.666;7.630;2022-11-02T00:26:32;7.03;;;2.75;;
7523;SDS011;3803;51.666;7.630;2022-11-02T00:26:55;7.88;;;2.70;;
7523;SDS011;3803;51.666;7.630;2022-11-02T00:27:15;8.10;;;2.80;;
7523;SDS011;3803;51.666;7.630;2022-11-02T00:27:36;10.63;;;2.90;;
7523;SDS011;3803;51.666;7.630;2022-11-02T00:27:56;12.10;;;3.40;;
7523;SDS011;3803;51.666;7.630;2022-11-02T00:28:17;11.63;;;3.30;;
7523;SDS011;3803;51.666;7.630;2022-11-02T00:28:38;10.38;;;3.20;;
7523;SDS011;3803;51.666;7.630;2022-11-02T00:28:58;7.07;;;2.77;;
7523;SDS011;3803;51.666;7.630;2022-11-02T00:29:19;7.57;;;2.80;;
7523;SDS011;3803;51.666;7.630;2022-11-02T00:29:41;9.75;;;2.83;;
7523;SDS011;3803;51.666;7.630;2022-11-02T00:30:02;10.63;;;2.90;;
7523;SDS011;3803;51.666;7.630;2022-11-02T00:30:23;10.38;;;2.80;;
7523;SDS011;3803;51.666;7.630;2022-11-02T00:30:44;6.65;;;2.60;;
7523;SDS011;3803;51.666;7.630;2022-11-02T00:31:05;5.50;;;2.60;;
7523;SDS011;3803;51.666;7.630;2022-11-02T00:31:26;7.40;;;2.85;;
7523;SDS011;3803;51.666;7.630;2022-11-02T00:31:46;7.93;;;3.05;;
7523;SDS011;3803;51.666;7.630;2022-11-02T00:32:07;8.23;;;2.90;;
7523;SDS011;3803;51.666;7.630;2022-11-02T00:32:27;7.57;;;2.80;;
7523;SDS011;3803;51.666;7.630;2022-11-02T00:32:49;8.27;;;3.03;;
7523;SDS011;3803;51.666;7.630;2022-11-02T00:33:10;8.73;;;3.17;;
7523;SDS011;3803;51.666;7.630;2022-11-02T00:33:30;7.75;;;3.00;;
7523;SDS011;3803;51.666;7.630;2022-11-02T00:33:51;7.32;;;2.60;;
7523;SDS011;3803;51.666;7.630;2022-11-02T00:34:12;7.80;;;2.63;;
7523;SDS011;3803;51.666;7.630;2022-11-02T00:34:32;8.30;;;2.80;;
7523;SDS011;3803;51.666;7.630;2022-11-02T00:34:53;7.40;;;2.72;;
7523;SDS011;3803;51.666;7.630;2022-11-02T00:35:14;6.67;;;2.60;;
7523;SDS011;3803;51.666;7.630;2022-11-02T00:35:34;6.78;;;2.50;;
7523;SDS011;3803;51.666;7.630;2022-11-02T00:35:57;7.85;;;2.80;;
7523;SDS011;3803;51.666;7.630;2022-11-02T00:36:18;8.05;;;3.00;;
7523;SDS011;3803;51.666;7.630;2022-11-02T00:36:38;9.80;;;3.00;;
7523;SDS011;3803;51.666;7.630;2022-11-02T00:36:59;10.32;;;2.92;;
7523;SDS011;3803;51.666;7.630;2022-11-02T00:37:19;10.03;;;3.10;;
7523;SDS011;3803;51.666;7.630;2022-11-02T00:37:40;8.95;;;3.10;;
7523;SDS011;3803;51.666;7.630;2022-11-02T00:38:01;9.48;;;3.13;;
7523;SDS011;3803;51.666;7.630;2022-11-02T00:38:21;10.17;;;3.10;;
7523;SDS011;3803;51.666;7.630;2022-11-02T00:38:42;11.40;;;3.28;;
7523;SDS011;3803;51.666;7.630;2022-11-02T00:39:02;10.32;;;3.40;;
7523;SDS011;3803;51.666;7.630;2022-11-02T00:39:23;9.93;;;3.20;;
7523;SDS011;3803;51.666;7.630;2022-11-02T00:39:44;9.40;;;3.00;;
7523;SDS011;3803;51.666;7.630;2022-11-02T00:40:04;10.30;;;2.80;;
7523;SDS011;3803;51.666;7.630;2022-11-02T00:40:25;10.02;;;3.00;;
7523;SDS011;3803;51.666;7.630;2022-11-02T00:40:46;10.50;;;3.20;;
7523;SDS011;3803;51.666;7.630;2022-11-02T00:41:07;10.33;;;3.30;;
7523;SDS011;3803;51.666;7.630;2022-11-02T00:41:28;11.18;;;3.10;;
7523;SDS011;3803;51.666;7.630;2022-11-02T00:41:48;12.65;;;3.30;;
7523;SDS011;3803;51.666;7.630;2022-11-02T00:42:09;12.13;;;3.33;;
7523;SDS011;3803;51.666;7.630;2022-11-02T00:42:30;10.88;;;3.17;;
7523;SDS011;3803;51.666;7.630;2022-11-02T00:42:51;7.47;;;2.90;;
7523;SDS011;3803;51.666;7.630;2022-11-02T00:43:12;8.18;;;3.25;;
7523;SDS011;3803;51.666;7.630;2022-11-02T00:43:32;7.68;;;3.25;;
7523;SDS011;3803;51.666;7.630;2022-11-02T00:43:53;9.03;;;3.20;;
7523;SDS011;3803;51.666;7.630;2022-11-02T00:44:13;7.75;;;3.05;;
7523;SDS011;3803;51.666;7.630;2022-11-02T00:44:34;7.47;;;2.90;;
7523;SDS011;3803;51.666;7.630;2022-11-02T00:44:54;6.43;;;2.70;;
7523;SDS011;3803;51.666;7.630;2022-11-02T00:45:15;7.30;;;2.58;;
7523;SDS011;3803;51.666;7.630;2022-11-02T00:45:36;7.07;;;2.60;;
7523;SDS011;3803;51.666;7.630;2022-11-02T00:45:57;6.70;;;2.60;;
7523;SDS011;3803;51.666;7.630;2022-11-02T00:46:17;7.53;;;2.70;;
7523;SDS011;3803;51.666;7.630;2022-11-02T00:46:39;6.70;;;2.60;;
7523;SDS011;3803;51.666;7.630;2022-11-02T00:47:00;8.68;;;2.67;;
7523;SDS011;3803;51.666;7.630;2022-11-02T00:47:20;8.73;;;2.90;;
7523;SDS011;3803;51.666;7.630;2022-11-02T00:47:41;9.43;;;3.10;;
7523;SDS011;3803;51.666;7.630;2022-11-02T00:48:02;7.93;;;2.95;;
7523;SDS011;3803;51.666;7.630;2022-11-02T00:48:23;7.53;;;3.10;;
7523;SDS011;3803;51.666;7.630;2022-11-02T00:48:44;9.15;;;3.10;;
7523;SDS011;3803;51.666;7.630;2022-11-02T00:49:05;10.23;;;3.10;;
7523;SDS011;3803;51.666;7.630;2022-11-02T00:49:28;10.23;;;3.10;;
7523;SDS011;3803;51.666;7.630;2022-11-02T00:49:49;9.40;;;3.05;;
7523;SDS011;3803;51.666;7.630;2022-11-02T00:50:10;7.85;;;2.75;;
7523;SDS011;3803;51.666;7.630;2022-11-02T00:50:32;6.60;;;2.53;;
7523;SDS011;3803;51.666;7.630;2022-11-02T00:50:53;7.20;;;2.60;;
7523;SDS011;3803;51.666;7.630;2022-11-02T00:51:16;7.68;;;2.60;;
7523;SDS011;3803;51.666;7.630;2022-11-02T00:51:38;7.82;;;2.80;;
7523;SDS011;3803;51.666;7.630;2022-11-02T00:51:59;8.27;;;2.90;;
7523;SDS011;3803;51.666;7.630;2022-11-02T00:52:21;7.55;;;2.95;;
7523;SDS011;3803;51.666;7.630;2022-11-02T00:52:44;8.02;;;3.10;;
7523;SDS011;3803;51.666;7.630;2022-11-02T00:53:05;7.75;;;2.97;;
7523;SDS011;3803;51.666;7.630;2022-11-02T00:53:36;7.85;;;3.08;;
7523;SDS011;3803;51.666;7.630;2022-11-02T00:53:56;7.70;;;2.90;;
7523;SDS011;3803;51.666;7.630;2022-11-02T00:54:17;8.70;;;2.90;;
7523;SDS011;3803;51.666;7.630;2022-11-02T00:54:38;8.10;;;2.60;;
7523;SDS011;3803;51.666;7.630;2022-11-02T00:55:00;9.88;;;2.80;;
7523;SDS011;3803;51.666;7.630;2022-11-02T00:55:21;9.88;;;2.80;;
7523;SDS011;3803;51.666;7.630;2022-11-02T00:55:41;11.02;;;3.00;;
7523;SDS011;3803;51.666;7.630;2022-11-02T00:56:02;10.70;;;2.80;;
7523;SDS011;3803;51.666;7.630;2022-11-02T00:56:23;11.48;;;3.10;;
7523;SDS011;3803;51.666;7.630;2022-11-02T00:56:44;9.50;;;3.00;;
7523;SDS011;3803;51.666;7.630;2022-11-02T00:57:04;9.43;;;3.17;;
7523;SDS011;3803;51.666;7.630;2022-11-02T00:57:25;8.70;;;3.15;;
7523;SDS011;3803;51.666;7.630;2022-11-02T00:57:47;9.13;;;3.35;;
7523;SDS011;3803;51.666;7.630;2022-11-02T00:58:08;8.15;;;2.95;;
7523;SDS011;3803;51.666;7.630;2022-11-02T00:58:29;8.10;;;3.00;;
7523;SDS011;3803;51.666;7.630;2022-11-02T00:58:49;8.47;;;2.80;;
7523;SDS011;3803;51.666;7.630;2022-11-02T00:59:10;7.80;;;3.00;;
7523;SDS011;3803;51.666;7.630;2022-11-02T00:59:31;7.78;;;2.95;;
7523;SDS011;3803;51.666;7.630;2022-11-02T00:59:51;6.97;;;2.80;;
7523;SDS011;3803;51.666;7.630;2022-11-02T01:00:12;8.93;;;2.90;;
7523;SDS011;3803;51.666;7.630;2022-11-02T01:00:34;10.23;;;2.90;;
7523;SDS011;3803;51.666;7.630;2022-11-02T01:00:56;10.15;;;2.95;;
7523;SDS011;3803;51.666;7.630;2022-11-02T01:01:17;7.97;;;2.70;;
7523;SDS011;3803;51.666;7.630;2022-11-02T01:01:37;5.85;;;2.45;;
7523;SDS011;3803;51.666;7.630;2022-11-02T01:01:58;7.47;;;2.50;;
7523;SDS011;3803;51.666;7.630;2022-11-02T01:02:18;8.13;;;2.70;;
7523;SDS011;3803;51.666;7.630;2022-11-02T01:02:39;8.20;;;2.70;;
7523;SDS011;3803;51.666;7.630;2022-11-02T01:03:00;7.70;;;2.73;;
7523;SDS011;3803;51.666;7.630;2022-11-02T01:03:21;7.13;;;2.80;;
7523;SDS011;3803;51.666;7.630;2022-11-02T01:03:42;8.98;;;2.95;;
7523;SDS011;3803;51.666;7.630;2022-11-02T01:04:02;10.70;;;3.00;;
7523;SDS011;3803;51.666;7.630;2022-11-02T01:04:23;10.82;;;2.80;;
7523;SDS011;3803;51.666;7.630;2022-11-02T01:04:45;9.15;;;2.70;;
7523;SDS011;3803;51.666;7.630;2022-11-02T01:05:06;6.90;;;2.63;;
7523;SDS011;3803;51.666;7.630;2022-11-02T01:05:28;8.45;;;3.17;;
7523;SDS011;3803;51.666;7.630;2022-11-02T01:05:49;7.78;;;3.20;;
7523;SDS011;3803;51.666;7.630;2022-11-02T01:06:11;8.73;;;3.27;;
7523;SDS011;3803;51.666;7.630;2022-11-02T01:06:33;7.47;;;2.80;;
7523;SDS011;3803;51.666;7.630;2022-11-02T01:06:54;8.52;;;2.72;;
7523;SDS011;3803;51.666;7.630;2022-11-02T01:07:14;6.20;;;2.43;;
7523;SDS011;3803;51.666;7.630;2022-11-02T01:07:36;6.63;;;2.55;;
7523;SDS011;3803;51.666;7.630;2022-11-02T01:07:58;6.75;;;2.63;;
7523;SDS011;3803;51.666;7.630;2022-11-02T01:08:20;7.43;;;2.80;;
7523;SDS011;3803;51.666;7.630;2022-11-02T01:08:40;8.50;;;2.80;;
7523;SDS011;3803;51.666;7.630;2022-11-02T01:09:01;9.52;;;2.95;;
7523;SDS011;3803;51.666;7.630;2022-11-02T01:09:22;9.70;;;2.80;;
7523;SDS011;3803;51.666;7.630;2022-11-02T01:09:44;7.35;;;2.90;;
7523;SDS011;3803;51.666;7.630;2022-11-02T01:10:05;9.15;;;2.90;;
7523;SDS011;3803;51.666;7.630;2022-11-02T01:10:27;9.65;;;3.17;;
7523;SDS011;3803;51.666;7.630;2022-11-02T01:10:47;10.15;;;3.05;;
7523;SDS011;3803;51.666;7.630;2022-11-02T01:11:10;8.00;;;2.75;;
7523;SDS011;3803;51.666;7.630;2022-11-02T01:11:36;5.97;;;2.50;;
7523;SDS011;3803;51.666;7.630;2022-11-02T01:11:57;6.72;;;2.75;;
7523;SDS011;3803;51.666;7.630;2022-11-02T01:12:17;7.97;;;2.60;;
7523;SDS011;3803;51.666;7.630;2022-11-02T01:12:39;8.50;;;2.60;;
7523;SDS011;3803;51.666;7.630;2022-11-02T01:13:00;9.25;;;2.78;;
7523;SDS011;3803;51.666;7.630;2022-11-02T01:13:21;9.05;;;2.88;;
7523;SDS011;3803;51.666;7.630;2022-11-02T01:13:41;8.13;;;2.90;;
7523;SDS011;3803;51.666;7.630;2022-11-02T01:14:02;7.72;;;2.80;;
7523;SDS011;3803;51.666;7.630;2022-11-02T01:14:23;7.82;;;3.55;;
7523;SDS011;3803;51.666;7.630;2022-11-02T01:14:46;10.43;;;3.50;;
7523;SDS011;3803;51.666;7.630;2022-11-02T01:15:08;12.40;;;3.60;;
7523;SDS011;3803;51.666;7.630;2022-11-02T01:15:31;8.50;;;3.00;;
7523;SDS011;3803;51.666;7.630;2022-11-02T01:15:52;10.40;;;2.97;;
7523;SDS011;3803;51.666;7.630;2022-11-02T01:16:13;9.60;;;2.67;;
7523;SDS011;3803;51.666;7.630;2022-11-02T01:16:34;12.05;;;2.80;;
7523;SDS011;3803;51.666;7.630;2022-11-02T01:16:54;13.60;;;2.70;;
7523;SDS011;3803;51.666;7.630;2022-11-02T01:17:17;12.20;;;2.80;;
7523;SDS011;3803;51.666;7.630;2022-11-02T01:17:38;7.55;;;2.47;;
7523;SDS011;3803;51.666;7.630;2022-11-02T01:17:59;7.72;;;2.60;;
7523;SDS011;3803;51.666;7.630;2022-11-02T01:18:21;10.32;;;2.70;;
7523;SDS011;3803;51.666;7.630;2022-11-02T01:18:42;9.23;;;2.70;;
7523;SDS011;3803;51.666;7.630;2022-11-02T01:19:03;9.07;;;2.70;;
7523;SDS011;3803;51.666;7.630;2022-11-02T01:19:23;8.40;;;2.70;;
7523;SDS011;3803;51.666;7.630;2022-11-02T01:19:44;8.43;;;2.80;;
7523;SDS011;3803;51.666;7.630;2022-11-02T01:20:05;7.87;;;2.87;;
7523;SDS011;3803;51.666;7.630;2022-11-02T01:20:27;6.47;;;2.70;;
7523;SDS011;3803;51.666;7.630;2022-11-02T01:20:47;7.07;;;2.75;;
7523;SDS011;3803;51.666;7.630;2022-11-02T01:21:15;9.57;;;3.17;;
7523;SDS011;3803;51.666;7.630;2022-11-02T01:21:36;9.37;;;3.20;;
7523;SDS011;3803;51.666;7.630;2022-11-02T01:21:56;10.98;;;3.47;;
7523;SDS011;3803;51.666;7.630;2022-11-02T01:22:17;9.45;;;3.15;;
7523;SDS011;3803;51.666;7.630;2022-11-02T01:22:38;9.85;;;3.20;;
7523;SDS011;3803;51.666;7.630;2022-11-02T01:22:59;7.77;;;2.73;;
7523;SDS011;3803;51.666;7.630;2022-11-02T01:23:19;8.50;;;3.00;;
7523;SDS011;3803;51.666;7.630;2022-11-02T01:23:40;9.80;;;3.20;;
7523;SDS011;3803;51.666;7.630;2022-11-02T01:24:00;10.63;;;3.17;;
7523;SDS011;3803;51.666;7.630;2022-11-02T01:24:21;14.52;;;3.38;;
7523;SDS011;3803;51.666;7.630;2022-11-02T01:24:41;14.37;;;3.10;;
7523;SDS011;3803;51.666;7.630;2022-11-02T01:25:03;12.40;;;2.90;;
7523;SDS011;3803;51.666;7.630;2022-11-02T01:25:24;8.65;;;2.88;;
7523;SDS011;3803;51.666;7.630;2022-11-02T01:25:45;7.65;;;2.95;;
7523;SDS011;3803;51.666;7.630;2022-11-02T01:26:06;10.27;;;3.10;;
7523;SDS011;3803;51.666;7.630;2022-11-02T01:26:28;10.32;;;2.80;;
7523;SDS011;3803;51.666;7.630;2022-11-02T01:26:52;9.70;;;2.90;;
7523;SDS011;3803;51.666;7.630;2022-11-02T01:27:12;10.00;;;3.03;;
7523;SDS011;3803;51.666;7.630;2022-11-02T01:27:33;10.00;;;3.30;;
7523;SDS011;3803;51.666;7.630;2022-11-02T01:27:53;8.35;;;2.95;;
7523;SDS011;3803;51.666;7.630;2022-11-02T01:28:14;8.77;;;3.03;;
7523;SDS011;3803;51.666;7.630;2022-11-02T01:28:35;7.07;;;2.90;;
7523;SDS011;3803;51.666;7.630;2022-11-02T01:28:55;6.40;;;2.70;;
7523;SDS011;3803;51.666;7.630;2022-11-02T01:29:16;6.13;;;2.87;;
7523;SDS011;3803;51.666;7.630;2022-11-02T01:29:37;7.38;;;2.80;;
7523;SDS011;3803;51.666;7.630;2022-11-02T01:29:58;6.87;;;2.90;;
7523;SDS011;3803;51.666;7.630;2022-11-02T01:30:18;6.95;;;2.70;;
7523;SDS011;3803;51.666;7.630;2022-11-02T01:30:39;6.17;;;2.70;;
7523;SDS011;3803;51.666;7.630;2022-11-02T01:31:00;8.05;;;2.83;;
7523;SDS011;3803;51.666;7.630;2022-11-02T01:31:22;8.05;;;2.78;;
7523;SDS011;3803;51.666;7.630;2022-11-02T01:31:42;8.57;;;2.70;;
7523;SDS011;3803;51.666;7.630;2022-11-02T01:32:03;8.38;;;2.55;;
7523;SDS011;3803;51.666;7.630;2022-11-02T01:32:24;11.40;;;2.60;;
7523;SDS011;3803;51.666;7.630;2022-11-02T01:32:47;11.05;;;2.80;;
7523;SDS011;3803;51.666;7.630;2022-11-02T01:33:08;10.45;;;2.83;;
7523;SDS011;3803;51.666;7.630;2022-11-02T01:33:28;9.20;;;3.10;;
7523;SDS011;3803;51.666;7.630;2022-11-02T01:33:49;10.82;;;3.10;;
7523;SDS011;3803;51.666;7.630;2022-11-02T01:34:10;11.20;;;3.20;;
7523;SDS011;3803;51.666;7.630;2022-11-02T01:34:31;7.65;;;2.67;;
7523;SDS011;3803;51.666;7.630;2022-11-02T01:34:52;7.25;;;2.80;;
7523;SDS011;3803;51.666;7.630;2022-11-02T01:35:13;6.13;;;2.80;;
7523;SDS011;3803;51.666;7.630;2022-11-02T01:35:35;8.50;;;3.17;;
7523;SDS011;3803;51.666;7.630;2022-11-02T01:35:56;10.77;;;3.30;;
7523;SDS011;3803;51.666;7.630;2022-11-02T01:36:17;12.45;;;3.05;;
7523;SDS011;3803;51.666;7.630;2022-11-02T01:36:40;10.02;;;2.88;;
7523;SDS011;3803;51.666;7.630;2022-11-02T01:37:04;5.95;;;2.50;;
7523;SDS011;3803;51.666;7.630;2022-11-02T01:37:24;6.57;;;2.90;;
7523;SDS011;3803;51.666;7.630;2022-11-02T01:37:45;6.75;;;2.90;;
7523;SDS011;3803;51.666;7.630;2022-11-02T01:38:05;6.30;;;2.78;;
7523;SDS011;3803;51.666;7.630;2022-11-02T01:38:26;5.40;;;2.40;;
7523;SDS011;3803;51.666;7.630;2022-11-02T01:38:47;8.30;;;2.70;;
7523;SDS011;3803;51.666;7.630;2022-11-02T01:39:08;10.80;;;2.80;;
7523;SDS011;3803;51.666;7.630;2022-11-02T01:39:29;12.27;;;2.97;;
7523;SDS011;3803;51.666;7.630;2022-11-02T01:39:50;11.93;;;3.00;;
7523;SDS011;3803;51.666;7.630;2022-11-02T01:40:10;12.68;;;3.30;;
7523;SDS011;3803;51.666;7.630;2022-11-02T01:40:35;10.48;;;3.10;;
7523;SDS011;3803;51.666;7.630;2022-11-02T01:40:59;7.85;;;3.05;;
7523;SDS011;3803;51.666;7.630;2022-11-02T01:41:19;8.70;;;2.80;;
7523;SDS011;3803;51.666;7.630;2022-11-02T01:41:41;7.53;;;2.65;;
7523;SDS011;3803;51.666;7.630;2022-11-02T01:42:15;6.80;;;2.60;;
7523;SDS011;3803;51.666;7.630;2022-11-02T01:42:38;5.80;;;2.45;;
7523;SDS011;3803;51.666;7.630;2022-11-02T01:42:59;7.45;;;2.60;;
7523;SDS011;3803;51.666;7.630;2022-11-02T01:43:41;6.85;;;2.80;;
7523;SDS011;3803;51.666;7.630;2022-11-02T01:44:02;9.68;;;2.70;;
7523;SDS011;3803;51.666;7.630;2022-11-02T01:44:48;9.63;;;2.60;;
7523;SDS011;3803;51.666;7.630;2022-11-02T01:45:09;10.38;;;2.70;;
7523;SDS011;3803;51.666;7.630;2022-11-02T01:45:32;10.48;;;3.20;;
7523;SDS011;3803;51.666;7.630;2022-11-02T01:46:20;7.80;;;2.60;;
7523;SDS011;3803;51.666;7.630;2022-11-02T01:46:44;7.72;;;2.50;;
7523;SDS011;3803;51.666;7.630;2022-11-02T01:47:51;8.60;;;2.65;;
7523;SDS011;3803;51.666;7.630;2022-11-02T01:47:52;5.85;;;2.55;;
7523;SDS011;3803;51.666;7.630;2022-11-02T01:48:12;5.47;;;2.60;;
7523;SDS011;3803;51.666;7.630;2022-11-02T01:48:38;6.60;;;2.70;;
7523;SDS011;3803;51.666;7.630;2022-11-02T01:49:05;10.40;;;2.90;;
7523;SDS011;3803;51.666;7.630;2022-11-02T01:49:30;9.77;;;2.53;;
7523;SDS011;3803;51.666;7.630;2022-11-02T01:49:56;7.22;;;2.50;;
7523;SDS011;3803;51.666;7.630;2022-11-02T01:50:24;5.70;;;2.60;;
7523;SDS011;3803;51.666;7.630;2022-11-02T01:50:46;6.72;;;2.80;;
7523;SDS011;3803;51.666;7.630;2022-11-02T01:51:09;9.52;;;2.97;;
7523;SDS011;3803;51.666;7.630;2022-11-02T01:51:34;9.35;;;3.00;;
7523;SDS011;3803;51.666;7.630;2022-11-02T01:52:15;7.28;;;2.70;;
7523;SDS011;3803;51.666;7.630;2022-11-02T01:52:40;7.60;;;2.58;;
7523;SDS011;3803;51.666;7.630;2022-11-02T01:53:00;8.53;;;2.70;;
7523;SDS011;3803;51.666;7.630;2022-11-02T01:53:21;6.97;;;2.65;;
7523;SDS011;3803;51.666;7.630;2022-11-02T01:53:43;7.10;;;3.03;;
7523;SDS011;3803;51.666;7.630;2022-11-02T01:54:07;5.15;;;2.70;;
7523;SDS011;3803;51.666;7.630;2022-11-02T01:54:36;5.10;;;2.75;;
7523;SDS011;3803;51.666;7.630;2022-11-02T01:55:27;7.97;;;3.25;;
7523;SDS011;3803;51.666;7.630;2022-11-02T01:55:51;10.05;;;3.25;;
7523;SDS011;3803;51.666;7.630;2022-11-02T01:56:13;10.15;;;3.10;;
7523;SDS011;3803;51.666;7.630;2022-11-02T01:56:37;7.15;;;2.47;;
7523;SDS011;3803;51.666;7.630;2022-11-02T01:57:02;8.40;;;2.67;;
7523;SDS011;3803;51.666;7.630;2022-11-02T01:57:26;8.27;;;2.90;;
7523;SDS011;3803;51.666;7.630;2022-11-02T01:57:50;8.00;;;2.70;;
7523;SDS011;3803;51.666;7.630;2022-11-02T01:58:17;12.02;;;3.08;;
7523;SDS011;3803;51.666;7.630;2022-11-02T01:58:37;12.45;;;2.85;;
7523;SDS011;3803;51.666;7.630;2022-11-02T01:59:00;12.88;;;2.90;;
7523;SDS011;3803;51.666;7.630;2022-11-02T01:59:32;8.07;;;2.72;;
7523;SDS011;3803;51.666;7.630;2022-11-02T02:00:03;7.10;;;2.60;;
7523;SDS011;3803;51.666;7.630;2022-11-02T02:00:33;8.85;;;2.60;;
7523;SDS011;3803;51.666;7.630;2022-11-02T02:00:54;8.95;;;2.67;;
7523;SDS011;3803;51.666;7.630;2022-11-02T02:01:15;10.35;;;3.00;;
7523;SDS011;3803;51.666;7.630;2022-11-02T02:01:36;11.10;;;3.10;;
7523;SDS011;3803;51.666;7.630;2022-11-02T02:01:56;11.27;;;3.20;;
7523;SDS011;3803;51.666;7.630;2022-11-02T02:02:19;10.15;;;2.83;;
7523;SDS011;3803;51.666;7.630;2022-11-02T02:02:49;6.95;;;2.38;;
7523;SDS011;3803;51.666;7.630;2022-11-02T02:03:14;6.30;;;2.22;;
7523;SDS011;3803;51.666;7.630;2022-11-02T02:03:39;7.75;;;2.42;;
7523;SDS011;3803;51.666;7.630;2022-11-02T02:04:02;10.27;;;3.00;;
7523;SDS011;3803;51.666;7.630;2022-11-02T02:04:29;10.48;;;3.20;;
7523;SDS011;3803;51.666;7.630;2022-11-02T02:04:52;11.57;;;3.20;;
7523;SDS011;3803;51.666;7.630;2022-11-02T02:05:18;11.10;;;3.25;;
7523;SDS011;3803;51.666;7.630;2022-11-02T02:05:47;10.55;;;3.15;;
7523;SDS011;3803;51.666;7.630;2022-11-02T02:06:12;8.35;;;2.88;;
7523;SDS011;3803;51.666;7.630;2022-11-02T02:06:35;8.30;;;3.00;;
7523;SDS011;3803;51.666;7.630;2022-11-02T02:06:58;7.03;;;2.92;;
7523;SDS011;3803;51.666;7.630;2022-11-02T02:07:19;7.30;;;2.60;;
7523;SDS011;3803;51.666;7.630;2022-11-02T02:07:44;7.00;;;2.33;;
7523;SDS011;3803;51.666;7.630;2022-11-02T02:08:05;8.93;;;2.58;;
7523;SDS011;3803;51.666;7.630;2022-11-02T02:08:28;8.23;;;2.70;;
7523;SDS011;3803;51.666;7.630;2022-11-02T02:08:50;8.30;;;2.92;;
7523;SDS011;3803;51.666;7.630;2022-11-02T02:09:14;7.30;;;2.50;;
7523;SDS011;3803;51.666;7.630;2022-11-02T02:09:35;7.82;;;2.65;;
7523;SDS011;3803;51.666;7.630;2022-11-02T02:09:56;8.38;;;2.50;;
7523;SDS011;3803;51.666;7.630;2022-11-02T02:10:17;8.00;;;2.47;;
7523;SDS011;3803;51.666;7.630;2022-11-02T02:10:38;6.97;;;2.30;;
7523;SDS011;3803;51.666;7.630;2022-11-02T02:10:59;8.88;;;2.75;;
7523;SDS011;3803;51.666;7.630;2022-11-02T02:11:30;8.63;;;2.80;;
7523;SDS011;3803;51.666;7.630;2022-11-02T02:11:55;7.50;;;2.63;;
7523;SDS011;3803;51.666;7.630;2022-11-02T02:12:16;7.43;;;2.85;;
7523;SDS011;3803;51.666;7.630;2022-11-02T02:12:38;8.30;;;3.03;;
7523;SDS011;3803;51.666;7.630;2022-11-02T02:13:01;10.63;;;3.00;;
7523;SDS011;3803;51.666;7.630;2022-11-02T02:13:24;9.65;;;2.70;;
7523;SDS011;3803;51.666;7.630;2022-11-02T02:13:46;8.05;;;2.50;;
7523;SDS011;3803;51.666;7.630;2022-11-02T02:14:08;7.60;;;2.60;;
7523;SDS011;3803;51.666;7.630;2022-11-02T02:14:38;7.63;;;2.88;;
7523;SDS011;3803;51.666;7.630;2022-11-02T02:14:59;7.82;;;2.80;;
7523;SDS011;3803;51.666;7.630;2022-11-02T02:15:23;6.50;;;2.60;;
7523;SDS011;3803;51.666;7.630;2022-11-02T02:15:49;5.95;;;2.40;;
7523;SDS011;3803;51.666;7.630;2022-11-02T02:16:31;7.45;;;2.55;;
7523;SDS011;3803;51.666;7.630;2022-11-02T02:18:11;7.15;;;2.30;;
7523;SDS011;3803;51.666;7.630;2022-11-02T02:19:22;8.55;;;2.97;;
7523;SDS011;3803;51.666;7.630;2022-11-02T02:20:00;10.05;;;3.15;;